sensor_id;sensor_type;location;lat;lon;timestamp;P1;durP1;ratioP1;P2;durP2;ratioP2
1925;SDS011;964;42.606;23.588;2023-07-24T00:00:41;9.33;;;7.30;;
1925;SDS011;964;42.606;23.588;2023-07-24T00:03:09;9.37;;;6.77;;
1925;SDS011;964;42.606;23.588;2023-07-24T00:05:35;9.77;;;6.90;;
1925;SDS011;964;42.606;23.588;2023-07-24T00:08:02;8.47;;;7.43;;
1925;SDS011;964;42.606;23.588;2023-07-24T00:10:29;8.50;;;7.50;;
1925;SDS011;964;42.606;23.588;2023-07-24T00:12:55;13.10;;;7.73;;
1925;SDS011;964;42.606;23.588;2023-07-24T00:15:22;11.53;;;8.00;;
1925;SDS011;964;42.606;23.588;2023-07-24T00:17:48;10.50;;;7.23;;
1925;SDS011;964;42.606;23.588;2023-07-24T00:20:16;10.73;;;8.13;;
1925;SDS011;964;42.606;23.588;2023-07-24T00:22:42;11.83;;;7.50;;
1925;SDS011;964;42.606;23.588;2023-07-24T00:25:09;12.93;;;7.83;;
1925;SDS011;964;42.606;23.588;2023-07-24T00:27:35;8.67;;;7.53;;
1925;SDS011;964;42.606;23.588;2023-07-24T00:30:02;9.40;;;7.57;;
1925;SDS011;964;42.606;23.588;2023-07-24T00:32:29;12.53;;;7.90;;
1925;SDS011;964;42.606;23.588;2023-07-24T00:34:56;11.17;;;8.73;;
1925;SDS011;964;42.606;23.588;2023-07-24T00:37:25;11.00;;;7.27;;
1925;SDS011;964;42.606;23.588;2023-07-24T00:39:51;8.37;;;6.60;;
1925;SDS011;964;42.606;23.588;2023-07-24T00:42:18;9.10;;;7.57;;
1925;SDS011;964;42.606;23.588;2023-07-24T00:44:44;12.87;;;7.23;;
1925;SDS011;964;42.606;23.588;2023-07-24T00:47:11;10.07;;;7.90;;
1925;SDS011;964;42.606;23.588;2023-07-24T00:49:37;10.50;;;8.10;;
1925;SDS011;964;42.606;23.588;2023-07-24T00:52:05;10.37;;;8.00;;
1925;SDS011;964;42.606;23.588;2023-07-24T00:54:34;9.20;;;7.13;;
1925;SDS011;964;42.606;23.588;2023-07-24T00:57:00;12.00;;;7.70;;
1925;SDS011;964;42.606;23.588;2023-07-24T00:59:29;10.13;;;7.23;;
1925;SDS011;964;42.606;23.588;2023-07-24T01:01:56;9.17;;;7.03;;
1925;SDS011;964;42.606;23.588;2023-07-24T01:04:22;10.03;;;7.47;;
1925;SDS011;964;42.606;23.588;2023-07-24T01:06:49;19.73;;;9.23;;
1925;SDS011;964;42.606;23.588;2023-07-24T01:09:16;18.70;;;8.43;;
1925;SDS011;964;42.606;23.588;2023-07-24T01:11:46;24.20;;;9.93;;
1925;SDS011;964;42.606;23.588;2023-07-24T01:14:17;23.30;;;9.30;;
1925;SDS011;964;42.606;23.588;2023-07-24T01:16:48;17.00;;;9.17;;
1925;SDS011;964;42.606;23.588;2023-07-24T01:19:16;13.17;;;8.80;;
1925;SDS011;964;42.606;23.588;2023-07-24T01:21:54;15.10;;;7.97;;
1925;SDS011;964;42.606;23.588;2023-07-24T01:24:29;18.67;;;7.70;;
1925;SDS011;964;42.606;23.588;2023-07-24T01:27:01;16.23;;;7.57;;
1925;SDS011;964;42.606;23.588;2023-07-24T01:29:28;17.37;;;8.00;;
1925;SDS011;964;42.606;23.588;2023-07-24T01:31:55;17.60;;;8.40;;
1925;SDS011;964;42.606;23.588;2023-07-24T01:34:22;11.43;;;7.70;;
1925;SDS011;964;42.606;23.588;2023-07-24T01:36:48;11.93;;;8.23;;
1925;SDS011;964;42.606;23.588;2023-07-24T01:39:16;12.70;;;7.90;;
1925;SDS011;964;42.606;23.588;2023-07-24T01:41:46;10.80;;;8.33;;
1925;SDS011;964;42.606;23.588;2023-07-24T01:44:14;12.50;;;8.90;;
1925;SDS011;964;42.606;23.588;2023-07-24T01:46:41;12.43;;;9.10;;
1925;SDS011;964;42.606;23.588;2023-07-24T01:49:08;9.90;;;8.17;;
1925;SDS011;964;42.606;23.588;2023-07-24T01:51:34;9.87;;;7.40;;
1925;SDS011;964;42.606;23.588;2023-07-24T01:54:01;11.70;;;7.97;;
1925;SDS011;964;42.606;23.588;2023-07-24T01:56:27;10.17;;;7.90;;
1925;SDS011;964;42.606;23.588;2023-07-24T01:58:54;12.27;;;7.87;;
1925;SDS011;964;42.606;23.588;2023-07-24T02:01:22;12.00;;;7.90;;
1925;SDS011;964;42.606;23.588;2023-07-24T02:03:49;10.73;;;8.00;;
1925;SDS011;964;42.606;23.588;2023-07-24T02:06:15;17.20;;;8.70;;
1925;SDS011;964;42.606;23.588;2023-07-24T02:08:42;9.70;;;7.80;;
1925;SDS011;964;42.606;23.588;2023-07-24T02:11:13;12.10;;;8.27;;
1925;SDS011;964;42.606;23.588;2023-07-24T02:13:40;9.07;;;6.83;;
1925;SDS011;964;42.606;23.588;2023-07-24T02:16:07;10.53;;;7.40;;
1925;SDS011;964;42.606;23.588;2023-07-24T02:18:35;9.50;;;7.40;;
1925;SDS011;964;42.606;23.588;2023-07-24T02:21:01;11.63;;;7.60;;
1925;SDS011;964;42.606;23.588;2023-07-24T02:23:28;9.90;;;7.33;;
1925;SDS011;964;42.606;23.588;2023-07-24T02:25:55;10.80;;;8.10;;
1925;SDS011;964;42.606;23.588;2023-07-24T02:28:21;11.20;;;7.33;;
1925;SDS011;964;42.606;23.588;2023-07-24T02:30:48;11.30;;;8.27;;
1925;SDS011;964;42.606;23.588;2023-07-24T02:33:16;10.60;;;7.50;;
1925;SDS011;964;42.606;23.588;2023-07-24T02:35:44;11.17;;;7.10;;
1925;SDS011;964;42.606;23.588;2023-07-24T02:38:11;10.97;;;7.57;;
1925;SDS011;964;42.606;23.588;2023-07-24T02:40:37;11.83;;;8.40;;
1925;SDS011;964;42.606;23.588;2023-07-24T02:43:07;12.60;;;8.03;;
1925;SDS011;964;42.606;23.588;2023-07-24T02:45:33;12.27;;;7.83;;
1925;SDS011;964;42.606;23.588;2023-07-24T02:48:00;11.60;;;8.80;;
1925;SDS011;964;42.606;23.588;2023-07-24T02:50:28;12.80;;;9.43;;
1925;SDS011;964;42.606;23.588;2023-07-24T02:52:56;10.50;;;8.03;;
1925;SDS011;964;42.606;23.588;2023-07-24T02:55:22;12.63;;;7.30;;
1925;SDS011;964;42.606;23.588;2023-07-24T02:57:49;10.03;;;8.33;;
1925;SDS011;964;42.606;23.588;2023-07-24T03:00:16;9.80;;;8.47;;
1925;SDS011;964;42.606;23.588;2023-07-24T03:02:42;11.43;;;8.30;;
1925;SDS011;964;42.606;23.588;2023-07-24T03:05:09;10.63;;;8.47;;
1925;SDS011;964;42.606;23.588;2023-07-24T03:07:36;12.03;;;8.10;;
1925;SDS011;964;42.606;23.588;2023-07-24T03:10:04;11.60;;;8.50;;
1925;SDS011;964;42.606;23.588;2023-07-24T03:12:33;11.83;;;8.93;;
1925;SDS011;964;42.606;23.588;2023-07-24T03:14:59;13.80;;;8.80;;
1925;SDS011;964;42.606;23.588;2023-07-24T03:17:26;10.23;;;7.83;;
1925;SDS011;964;42.606;23.588;2023-07-24T03:19:53;10.60;;;8.40;;
1925;SDS011;964;42.606;23.588;2023-07-24T03:22:20;13.10;;;9.10;;
1925;SDS011;964;42.606;23.588;2023-07-24T03:24:47;14.10;;;8.87;;
1925;SDS011;964;42.606;23.588;2023-07-24T03:27:14;11.30;;;9.10;;
1925;SDS011;964;42.606;23.588;2023-07-24T03:29:41;15.20;;;8.90;;
1925;SDS011;964;42.606;23.588;2023-07-24T03:32:08;12.30;;;8.50;;
1925;SDS011;964;42.606;23.588;2023-07-24T03:34:34;16.20;;;9.33;;
1925;SDS011;964;42.606;23.588;2023-07-24T03:37:01;15.40;;;8.17;;
1925;SDS011;964;42.606;23.588;2023-07-24T03:39:27;15.00;;;8.73;;
1925;SDS011;964;42.606;23.588;2023-07-24T03:41:54;17.23;;;8.73;;
1925;SDS011;964;42.606;23.588;2023-07-24T03:44:22;15.57;;;8.80;;
1925;SDS011;964;42.606;23.588;2023-07-24T03:46:48;11.43;;;8.27;;
1925;SDS011;964;42.606;23.588;2023-07-24T03:49:15;11.60;;;7.87;;
1925;SDS011;964;42.606;23.588;2023-07-24T03:51:42;12.10;;;7.00;;
1925;SDS011;964;42.606;23.588;2023-07-24T03:54:08;10.23;;;7.90;;
1925;SDS011;964;42.606;23.588;2023-07-24T03:56:35;12.23;;;7.63;;
1925;SDS011;964;42.606;23.588;2023-07-24T03:59:01;11.53;;;8.60;;
1925;SDS011;964;42.606;23.588;2023-07-24T04:01:29;10.53;;;9.07;;
1925;SDS011;964;42.606;23.588;2023-07-24T04:03:56;12.23;;;8.17;;
1925;SDS011;964;42.606;23.588;2023-07-24T04:06:23;10.90;;;8.50;;
1925;SDS011;964;42.606;23.588;2023-07-24T04:08:49;14.13;;;9.53;;
1925;SDS011;964;42.606;23.588;2023-07-24T04:11:16;10.67;;;8.17;;
1925;SDS011;964;42.606;23.588;2023-07-24T04:13:42;11.03;;;7.90;;
1925;SDS011;964;42.606;23.588;2023-07-24T04:16:09;12.63;;;7.70;;
1925;SDS011;964;42.606;23.588;2023-07-24T04:18:37;10.43;;;8.17;;
1925;SDS011;964;42.606;23.588;2023-07-24T04:21:03;12.00;;;7.87;;
1925;SDS011;964;42.606;23.588;2023-07-24T04:23:30;11.37;;;8.53;;
1925;SDS011;964;42.606;23.588;2023-07-24T04:25:57;12.13;;;8.57;;
1925;SDS011;964;42.606;23.588;2023-07-24T04:28:23;12.17;;;8.70;;
1925;SDS011;964;42.606;23.588;2023-07-24T04:30:50;14.80;;;8.87;;
1925;SDS011;964;42.606;23.588;2023-07-24T04:33:16;12.47;;;8.90;;
1925;SDS011;964;42.606;23.588;2023-07-24T04:35:44;12.30;;;7.87;;
1925;SDS011;964;42.606;23.588;2023-07-24T04:38:14;12.40;;;8.80;;
1925;SDS011;964;42.606;23.588;2023-07-24T04:40:43;14.77;;;8.73;;
1925;SDS011;964;42.606;23.588;2023-07-24T04:43:10;12.20;;;8.17;;
1925;SDS011;964;42.606;23.588;2023-07-24T04:45:36;16.70;;;9.90;;
1925;SDS011;964;42.606;23.588;2023-07-24T04:48:03;11.47;;;8.77;;
1925;SDS011;964;42.606;23.588;2023-07-24T04:50:30;20.37;;;8.23;;
1925;SDS011;964;42.606;23.588;2023-07-24T04:52:59;16.63;;;8.23;;
1925;SDS011;964;42.606;23.588;2023-07-24T04:55:25;11.57;;;8.47;;
1925;SDS011;964;42.606;23.588;2023-07-24T04:57:52;15.20;;;10.27;;
1925;SDS011;964;42.606;23.588;2023-07-24T05:00:19;14.80;;;9.80;;
1925;SDS011;964;42.606;23.588;2023-07-24T05:02:45;15.50;;;9.50;;
1925;SDS011;964;42.606;23.588;2023-07-24T05:05:12;15.13;;;9.20;;
1925;SDS011;964;42.606;23.588;2023-07-24T05:07:38;16.03;;;10.03;;
1925;SDS011;964;42.606;23.588;2023-07-24T05:10:07;18.90;;;10.40;;
1925;SDS011;964;42.606;23.588;2023-07-24T05:12:33;13.00;;;9.10;;
1925;SDS011;964;42.606;23.588;2023-07-24T05:15:00;16.20;;;10.60;;
1925;SDS011;964;42.606;23.588;2023-07-24T05:17:27;17.00;;;12.30;;
1925;SDS011;964;42.606;23.588;2023-07-24T05:19:54;16.40;;;9.93;;
1925;SDS011;964;42.606;23.588;2023-07-24T05:22:20;19.33;;;11.80;;
1925;SDS011;964;42.606;23.588;2023-07-24T05:24:47;15.50;;;10.60;;
1925;SDS011;964;42.606;23.588;2023-07-24T05:27:15;17.23;;;10.20;;
1925;SDS011;964;42.606;23.588;2023-07-24T05:29:41;13.93;;;10.13;;
1925;SDS011;964;42.606;23.588;2023-07-24T05:32:08;14.17;;;9.53;;
1925;SDS011;964;42.606;23.588;2023-07-24T05:34:35;12.77;;;9.37;;
1925;SDS011;964;42.606;23.588;2023-07-24T05:37:02;13.63;;;10.33;;
1925;SDS011;964;42.606;23.588;2023-07-24T05:39:29;12.83;;;9.07;;
1925;SDS011;964;42.606;23.588;2023-07-24T05:41:56;12.20;;;9.50;;
1925;SDS011;964;42.606;23.588;2023-07-24T05:44:23;16.20;;;9.57;;
1925;SDS011;964;42.606;23.588;2023-07-24T05:46:50;14.60;;;9.57;;
1925;SDS011;964;42.606;23.588;2023-07-24T05:49:17;13.93;;;9.60;;
1925;SDS011;964;42.606;23.588;2023-07-24T05:51:43;16.40;;;9.87;;
1925;SDS011;964;42.606;23.588;2023-07-24T05:54:10;11.53;;;8.70;;
1925;SDS011;964;42.606;23.588;2023-07-24T05:56:36;12.10;;;10.23;;
1925;SDS011;964;42.606;23.588;2023-07-24T05:59:03;13.40;;;8.77;;
1925;SDS011;964;42.606;23.588;2023-07-24T06:01:31;13.50;;;9.10;;
1925;SDS011;964;42.606;23.588;2023-07-24T06:03:57;13.17;;;9.30;;
1925;SDS011;964;42.606;23.588;2023-07-24T06:06:24;12.73;;;8.20;;
1925;SDS011;964;42.606;23.588;2023-07-24T06:11:35;10.07;;;8.13;;
1925;SDS011;964;42.606;23.588;2023-07-24T06:14:06;12.03;;;9.00;;
1925;SDS011;964;42.606;23.588;2023-07-24T06:16:52;11.20;;;8.10;;
1925;SDS011;964;42.606;23.588;2023-07-24T06:19:22;11.50;;;8.50;;
1925;SDS011;964;42.606;23.588;2023-07-24T06:21:49;14.30;;;8.93;;
1925;SDS011;964;42.606;23.588;2023-07-24T06:24:16;13.23;;;9.03;;
1925;SDS011;964;42.606;23.588;2023-07-24T06:26:44;9.83;;;7.23;;
1925;SDS011;964;42.606;23.588;2023-07-24T06:29:10;9.40;;;8.43;;
1925;SDS011;964;42.606;23.588;2023-07-24T06:31:37;12.90;;;9.10;;
1925;SDS011;964;42.606;23.588;2023-07-24T06:34:05;11.23;;;8.50;;
1925;SDS011;964;42.606;23.588;2023-07-24T06:36:32;13.00;;;9.13;;
1925;SDS011;964;42.606;23.588;2023-07-24T06:38:59;12.33;;;8.10;;
1925;SDS011;964;42.606;23.588;2023-07-24T06:41:25;10.17;;;8.07;;
1925;SDS011;964;42.606;23.588;2023-07-24T06:43:52;15.90;;;8.13;;
1925;SDS011;964;42.606;23.588;2023-07-24T06:46:19;10.37;;;8.13;;
1925;SDS011;964;42.606;23.588;2023-07-24T06:48:45;11.87;;;8.50;;
1925;SDS011;964;42.606;23.588;2023-07-24T06:51:13;13.23;;;8.33;;
1925;SDS011;964;42.606;23.588;2023-07-24T06:53:40;10.80;;;8.93;;
1925;SDS011;964;42.606;23.588;2023-07-24T06:56:06;11.33;;;8.77;;
1925;SDS011;964;42.606;23.588;2023-07-24T06:58:33;13.30;;;9.60;;
1925;SDS011;964;42.606;23.588;2023-07-24T07:00:59;14.73;;;9.43;;
1925;SDS011;964;42.606;23.588;2023-07-24T07:03:26;11.23;;;8.60;;
1925;SDS011;964;42.606;23.588;2023-07-24T07:05:58;11.53;;;8.73;;
1925;SDS011;964;42.606;23.588;2023-07-24T07:08:26;15.30;;;10.20;;
1925;SDS011;964;42.606;23.588;2023-07-24T07:10:54;13.67;;;9.30;;
1925;SDS011;964;42.606;23.588;2023-07-24T07:13:21;11.73;;;8.90;;
1925;SDS011;964;42.606;23.588;2023-07-24T07:15:48;15.43;;;10.20;;
1925;SDS011;964;42.606;23.588;2023-07-24T07:18:14;14.90;;;9.70;;
1925;SDS011;964;42.606;23.588;2023-07-24T07:20:44;12.10;;;9.90;;
1925;SDS011;964;42.606;23.588;2023-07-24T07:23:11;10.93;;;9.10;;
1925;SDS011;964;42.606;23.588;2023-07-24T07:25:39;11.13;;;8.20;;
1925;SDS011;964;42.606;23.588;2023-07-24T07:28:06;23.80;;;10.83;;
1925;SDS011;964;42.606;23.588;2023-07-24T07:30:32;15.23;;;9.40;;
1925;SDS011;964;42.606;23.588;2023-07-24T07:32:59;17.30;;;8.60;;
1925;SDS011;964;42.606;23.588;2023-07-24T07:35:25;20.90;;;8.03;;
1925;SDS011;964;42.606;23.588;2023-07-24T07:37:52;15.93;;;8.53;;
1925;SDS011;964;42.606;23.588;2023-07-24T07:40:19;11.07;;;8.73;;
1925;SDS011;964;42.606;23.588;2023-07-24T07:42:47;11.87;;;9.37;;
1925;SDS011;964;42.606;23.588;2023-07-24T07:45:13;16.33;;;10.27;;
1925;SDS011;964;42.606;23.588;2023-07-24T07:47:40;13.17;;;9.03;;
1925;SDS011;964;42.606;23.588;2023-07-24T07:50:07;14.53;;;9.53;;
1925;SDS011;964;42.606;23.588;2023-07-24T07:52:34;18.57;;;10.03;;
1925;SDS011;964;42.606;23.588;2023-07-24T07:55:00;11.97;;;9.00;;
1925;SDS011;964;42.606;23.588;2023-07-24T07:57:27;13.03;;;9.83;;
1925;SDS011;964;42.606;23.588;2023-07-24T07:59:55;11.20;;;9.57;;
1925;SDS011;964;42.606;23.588;2023-07-24T08:02:22;11.47;;;9.40;;
1925;SDS011;964;42.606;23.588;2023-07-24T08:04:49;13.50;;;9.17;;
1925;SDS011;964;42.606;23.588;2023-07-24T08:07:15;10.90;;;8.37;;
1925;SDS011;964;42.606;23.588;2023-07-24T08:09:42;18.33;;;9.50;;
1925;SDS011;964;42.606;23.588;2023-07-24T08:12:09;14.17;;;9.67;;
1925;SDS011;964;42.606;23.588;2023-07-24T08:14:35;11.70;;;8.57;;
1925;SDS011;964;42.606;23.588;2023-07-24T08:17:04;11.70;;;9.00;;
1925;SDS011;964;42.606;23.588;2023-07-24T08:19:30;13.13;;;9.80;;
1925;SDS011;964;42.606;23.588;2023-07-24T08:21:57;10.27;;;8.47;;
1925;SDS011;964;42.606;23.588;2023-07-24T08:35:37;11.73;;;8.50;;
1925;SDS011;964;42.606;23.588;2023-07-24T08:38:04;12.40;;;10.02;;
1925;SDS011;964;42.606;23.588;2023-07-24T08:40:30;11.10;;;9.38;;
1925;SDS011;964;42.606;23.588;2023-07-24T08:42:57;11.95;;;8.63;;
1925;SDS011;964;42.606;23.588;2023-07-24T08:45:24;13.40;;;10.15;;
1925;SDS011;964;42.606;23.588;2023-07-24T08:47:52;11.00;;;9.88;;
1925;SDS011;964;42.606;23.588;2023-07-24T08:50:19;11.00;;;8.95;;
1925;SDS011;964;42.606;23.588;2023-07-24T08:52:48;12.30;;;9.15;;
1925;SDS011;964;42.606;23.588;2023-07-24T08:55:14;18.33;;;9.93;;
1925;SDS011;964;42.606;23.588;2023-07-24T08:57:41;11.23;;;9.20;;
1925;SDS011;964;42.606;23.588;2023-07-24T09:00:08;10.30;;;9.20;;
1925;SDS011;964;42.606;23.588;2023-07-24T09:02:35;13.32;;;9.52;;
1925;SDS011;964;42.606;23.588;2023-07-24T09:05:02;10.65;;;8.02;;
1925;SDS011;964;42.606;23.588;2023-07-24T09:07:29;11.75;;;8.32;;
1925;SDS011;964;42.606;23.588;2023-07-24T09:09:58;10.70;;;8.52;;
1925;SDS011;964;42.606;23.588;2023-07-24T09:12:24;14.82;;;9.88;;
1925;SDS011;964;42.606;23.588;2023-07-24T09:15:00;11.65;;;9.52;;
1925;SDS011;964;42.606;23.588;2023-07-24T09:17:27;10.20;;;9.10;;
1925;SDS011;964;42.606;23.588;2023-07-24T09:19:55;11.20;;;9.43;;
1925;SDS011;964;42.606;23.588;2023-07-24T09:22:23;12.27;;;9.27;;
1925;SDS011;964;42.606;23.588;2023-07-24T09:24:52;12.73;;;8.63;;
1925;SDS011;964;42.606;23.588;2023-07-24T09:27:23;10.93;;;8.80;;
1925;SDS011;964;42.606;23.588;2023-07-24T09:29:51;10.77;;;9.00;;
1925;SDS011;964;42.606;23.588;2023-07-24T09:32:19;11.50;;;9.10;;
1925;SDS011;964;42.606;23.588;2023-07-24T09:34:47;11.13;;;9.23;;
1925;SDS011;964;42.606;23.588;2023-07-24T09:37:22;15.02;;;9.55;;
1925;SDS011;964;42.606;23.588;2023-07-24T09:39:50;12.73;;;9.93;;
1925;SDS011;964;42.606;23.588;2023-07-24T09:42:16;12.93;;;9.20;;
1925;SDS011;964;42.606;23.588;2023-07-24T09:44:44;10.60;;;8.40;;
1925;SDS011;964;42.606;23.588;2023-07-24T09:47:11;16.00;;;10.38;;
1925;SDS011;964;42.606;23.588;2023-07-24T09:49:38;11.48;;;8.75;;
1925;SDS011;964;42.606;23.588;2023-07-24T09:52:05;11.65;;;9.63;;
1925;SDS011;964;42.606;23.588;2023-07-24T09:54:37;12.10;;;9.82;;
1925;SDS011;964;42.606;23.588;2023-07-24T09:57:13;11.90;;;9.73;;
1925;SDS011;964;42.606;23.588;2023-07-24T09:59:40;10.43;;;8.57;;
1925;SDS011;964;42.606;23.588;2023-07-24T10:02:09;11.93;;;9.10;;
1925;SDS011;964;42.606;23.588;2023-07-24T10:04:38;16.58;;;9.55;;
1925;SDS011;964;42.606;23.588;2023-07-24T10:07:06;13.85;;;9.30;;
1925;SDS011;964;42.606;23.588;2023-07-24T10:09:33;10.88;;;9.30;;
1925;SDS011;964;42.606;23.588;2023-07-24T10:12:00;11.77;;;9.13;;
1925;SDS011;964;42.606;23.588;2023-07-24T10:14:28;13.70;;;8.85;;
1925;SDS011;964;42.606;23.588;2023-07-24T10:16:55;12.00;;;8.60;;
1925;SDS011;964;42.606;23.588;2023-07-24T10:19:24;8.32;;;7.50;;
1925;SDS011;964;42.606;23.588;2023-07-24T10:22:01;9.70;;;7.43;;
1925;SDS011;964;42.606;23.588;2023-07-24T10:24:28;10.07;;;8.98;;
1925;SDS011;964;42.606;23.588;2023-07-24T10:26:55;13.65;;;8.68;;
1925;SDS011;964;42.606;23.588;2023-07-24T10:29:23;15.23;;;10.65;;
1925;SDS011;964;42.606;23.588;2023-07-24T10:31:52;12.55;;;9.57;;
1925;SDS011;964;42.606;23.588;2023-07-24T10:34:20;12.75;;;8.82;;
1925;SDS011;964;42.606;23.588;2023-07-24T10:36:48;10.93;;;8.75;;
1925;SDS011;964;42.606;23.588;2023-07-24T10:39:15;11.38;;;9.68;;
1925;SDS011;964;42.606;23.588;2023-07-24T10:41:43;13.18;;;9.68;;
1925;SDS011;964;42.606;23.588;2023-07-24T10:44:11;11.55;;;8.85;;
1925;SDS011;964;42.606;23.588;2023-07-24T10:46:38;10.38;;;9.27;;
1925;SDS011;964;42.606;23.588;2023-07-24T10:49:06;13.00;;;9.48;;
1925;SDS011;964;42.606;23.588;2023-07-24T10:51:33;15.05;;;8.98;;
1925;SDS011;964;42.606;23.588;2023-07-24T10:54:04;13.95;;;9.30;;
1925;SDS011;964;42.606;23.588;2023-07-24T10:56:31;12.07;;;10.05;;
1925;SDS011;964;42.606;23.588;2023-07-24T10:59:02;9.95;;;8.88;;
1925;SDS011;964;42.606;23.588;2023-07-24T11:01:29;12.63;;;9.38;;
1925;SDS011;964;42.606;23.588;2023-07-24T11:03:57;15.75;;;10.40;;
1925;SDS011;964;42.606;23.588;2023-07-24T11:06:24;10.35;;;8.88;;
1925;SDS011;964;42.606;23.588;2023-07-24T11:08:51;13.07;;;9.52;;
1925;SDS011;964;42.606;23.588;2023-07-24T11:11:19;11.23;;;9.35;;
1925;SDS011;964;42.606;23.588;2023-07-24T11:13:46;14.55;;;10.10;;
1925;SDS011;964;42.606;23.588;2023-07-24T11:16:13;10.55;;;9.45;;
1925;SDS011;964;42.606;23.588;2023-07-24T11:18:46;10.32;;;9.15;;
1925;SDS011;964;42.606;23.588;2023-07-24T11:21:13;11.93;;;9.27;;
1925;SDS011;964;42.606;23.588;2023-07-24T11:23:44;13.40;;;9.23;;
1925;SDS011;964;42.606;23.588;2023-07-24T11:26:11;11.93;;;9.15;;
1925;SDS011;964;42.606;23.588;2023-07-24T11:28:40;12.85;;;9.13;;
1925;SDS011;964;42.606;23.588;2023-07-24T11:31:06;11.75;;;9.85;;
1925;SDS011;964;42.606;23.588;2023-07-24T11:33:33;10.88;;;8.90;;
1925;SDS011;964;42.606;23.588;2023-07-24T11:36:01;10.23;;;8.77;;
1925;SDS011;964;42.606;23.588;2023-07-24T11:38:28;13.88;;;8.93;;
1925;SDS011;964;42.606;23.588;2023-07-24T11:40:55;11.30;;;9.10;;
1925;SDS011;964;42.606;23.588;2023-07-24T11:43:22;12.88;;;9.38;;
1925;SDS011;964;42.606;23.588;2023-07-24T11:45:51;11.18;;;9.02;;
1925;SDS011;964;42.606;23.588;2023-07-24T11:48:19;11.07;;;8.27;;
1925;SDS011;964;42.606;23.588;2023-07-24T11:50:47;14.32;;;9.20;;
1925;SDS011;964;42.606;23.588;2023-07-24T11:53:21;14.45;;;8.98;;
1925;SDS011;964;42.606;23.588;2023-07-24T11:55:49;9.50;;;8.10;;
1925;SDS011;964;42.606;23.588;2023-07-24T11:58:16;12.63;;;9.27;;
1925;SDS011;964;42.606;23.588;2023-07-24T12:00:44;10.43;;;8.65;;
1925;SDS011;964;42.606;23.588;2023-07-24T12:03:13;13.70;;;8.82;;
1925;SDS011;964;42.606;23.588;2023-07-24T12:05:39;12.75;;;8.65;;
1925;SDS011;964;42.606;23.588;2023-07-24T12:08:07;11.48;;;8.88;;
1925;SDS011;964;42.606;23.588;2023-07-24T12:10:35;13.35;;;9.23;;
1925;SDS011;964;42.606;23.588;2023-07-24T12:13:02;11.77;;;9.02;;
1925;SDS011;964;42.606;23.588;2023-07-24T12:15:29;10.95;;;8.50;;
1925;SDS011;964;42.606;23.588;2023-07-24T12:17:56;11.50;;;8.43;;
1925;SDS011;964;42.606;23.588;2023-07-24T12:20:24;15.20;;;9.50;;
1925;SDS011;964;42.606;23.588;2023-07-24T12:22:51;10.65;;;8.75;;
1925;SDS011;964;42.606;23.588;2023-07-24T12:25:18;14.82;;;9.07;;
1925;SDS011;964;42.606;23.588;2023-07-24T12:27:45;12.63;;;8.50;;
1925;SDS011;964;42.606;23.588;2023-07-24T12:30:12;12.88;;;8.75;;
1925;SDS011;964;42.606;23.588;2023-07-24T12:32:39;9.05;;;7.75;;
1925;SDS011;964;42.606;23.588;2023-07-24T12:35:09;10.23;;;9.15;;
1925;SDS011;964;42.606;23.588;2023-07-24T12:37:37;14.07;;;9.20;;
1925;SDS011;964;42.606;23.588;2023-07-24T12:40:05;10.80;;;7.53;;
1925;SDS011;964;42.606;23.588;2023-07-24T12:42:33;15.38;;;8.30;;
1925;SDS011;964;42.606;23.588;2023-07-24T12:44:59;12.88;;;7.35;;
1925;SDS011;964;42.606;23.588;2023-07-24T12:47:27;9.65;;;7.68;;
1925;SDS011;964;42.606;23.588;2023-07-24T12:49:54;9.65;;;7.47;;
1925;SDS011;964;42.606;23.588;2023-07-24T12:52:22;11.80;;;9.60;;
1925;SDS011;964;42.606;23.588;2023-07-24T12:54:50;8.18;;;7.10;;
1925;SDS011;964;42.606;23.588;2023-07-24T12:57:17;11.40;;;8.45;;
1925;SDS011;964;42.606;23.588;2023-07-24T12:59:44;9.32;;;7.78;;
1925;SDS011;964;42.606;23.588;2023-07-24T13:02:10;10.02;;;7.47;;
1925;SDS011;964;42.606;23.588;2023-07-24T13:04:37;13.93;;;8.50;;
1925;SDS011;964;42.606;23.588;2023-07-24T13:07:03;12.70;;;8.25;;
1925;SDS011;964;42.606;23.588;2023-07-24T13:09:30;12.50;;;7.82;;
1925;SDS011;964;42.606;23.588;2023-07-24T13:11:58;10.27;;;8.75;;
1925;SDS011;964;42.606;23.588;2023-07-24T13:14:25;10.93;;;6.78;;
1925;SDS011;964;42.606;23.588;2023-07-24T13:16:52;9.73;;;7.70;;
1925;SDS011;964;42.606;23.588;2023-07-24T13:19:18;10.63;;;7.75;;
1925;SDS011;964;42.606;23.588;2023-07-24T13:21:45;11.38;;;8.35;;
1925;SDS011;964;42.606;23.588;2023-07-24T13:24:12;7.95;;;6.97;;
1925;SDS011;964;42.606;23.588;2023-07-24T13:26:38;11.07;;;8.10;;
1925;SDS011;964;42.606;23.588;2023-07-24T13:29:07;10.55;;;8.48;;
1925;SDS011;964;42.606;23.588;2023-07-24T13:31:33;9.10;;;7.90;;
1925;SDS011;964;42.606;23.588;2023-07-24T13:34:00;9.80;;;7.57;;
1925;SDS011;964;42.606;23.588;2023-07-24T13:36:27;11.07;;;8.30;;
1925;SDS011;964;42.606;23.588;2023-07-24T13:39:08;12.82;;;8.30;;
1925;SDS011;964;42.606;23.588;2023-07-24T13:41:35;13.20;;;8.48;;
1925;SDS011;964;42.606;23.588;2023-07-24T13:44:03;12.20;;;7.80;;
1925;SDS011;964;42.606;23.588;2023-07-24T13:46:31;9.68;;;7.82;;
1925;SDS011;964;42.606;23.588;2023-07-24T13:48:58;10.88;;;8.30;;
1925;SDS011;964;42.606;23.588;2023-07-24T13:51:24;10.07;;;7.38;;
1925;SDS011;964;42.606;23.588;2023-07-24T13:53:51;12.95;;;8.52;;
1925;SDS011;964;42.606;23.588;2023-07-24T13:56:19;13.02;;;8.98;;
1925;SDS011;964;42.606;23.588;2023-07-24T13:58:47;11.70;;;8.20;;
1925;SDS011;964;42.606;23.588;2023-07-24T14:01:14;10.27;;;7.72;;
1925;SDS011;964;42.606;23.588;2023-07-24T14:03:42;10.10;;;8.32;;
1925;SDS011;964;42.606;23.588;2023-07-24T14:06:09;12.38;;;8.38;;
1925;SDS011;964;42.606;23.588;2023-07-24T14:08:35;14.23;;;8.27;;
1925;SDS011;964;42.606;23.588;2023-07-24T14:11:02;10.23;;;8.05;;
1925;SDS011;964;42.606;23.588;2023-07-24T14:13:29;9.48;;;7.63;;
1925;SDS011;964;42.606;23.588;2023-07-24T14:15:55;9.75;;;8.20;;
1925;SDS011;964;42.606;23.588;2023-07-24T14:18:22;11.55;;;7.60;;
1925;SDS011;964;42.606;23.588;2023-07-24T14:20:50;9.63;;;7.78;;
1925;SDS011;964;42.606;23.588;2023-07-24T14:23:19;13.68;;;8.45;;
1925;SDS011;964;42.606;23.588;2023-07-24T14:25:46;13.50;;;7.70;;
1925;SDS011;964;42.606;23.588;2023-07-24T14:28:12;8.90;;;7.88;;
1925;SDS011;964;42.606;23.588;2023-07-24T14:30:39;11.18;;;8.40;;
1925;SDS011;964;42.606;23.588;2023-07-24T14:33:05;9.80;;;8.00;;
1925;SDS011;964;42.606;23.588;2023-07-24T14:35:32;9.35;;;8.18;;
1925;SDS011;964;42.606;23.588;2023-07-24T14:38:00;9.57;;;8.07;;
1925;SDS011;964;42.606;23.588;2023-07-24T14:40:26;8.95;;;8.05;;
1925;SDS011;964;42.606;23.588;2023-07-24T14:42:53;14.73;;;8.50;;
1925;SDS011;964;42.606;23.588;2023-07-24T14:45:20;11.85;;;8.57;;
1925;SDS011;964;42.606;23.588;2023-07-24T14:47:46;10.63;;;8.23;;
1925;SDS011;964;42.606;23.588;2023-07-24T14:50:13;10.80;;;8.48;;
1925;SDS011;964;42.606;23.588;2023-07-24T14:52:40;8.88;;;7.85;;
1925;SDS011;964;42.606;23.588;2023-07-24T14:55:08;12.30;;;8.18;;
1925;SDS011;964;42.606;23.588;2023-07-24T14:57:35;9.68;;;7.63;;
1925;SDS011;964;42.606;23.588;2023-07-24T15:00:02;9.35;;;7.75;;
1925;SDS011;964;42.606;23.588;2023-07-24T15:02:29;10.63;;;8.82;;
1925;SDS011;964;42.606;23.588;2023-07-24T15:04:57;14.45;;;8.02;;
1925;SDS011;964;42.606;23.588;2023-07-24T15:07:24;9.45;;;7.50;;
1925;SDS011;964;42.606;23.588;2023-07-24T15:09:51;10.77;;;8.23;;
1925;SDS011;964;42.606;23.588;2023-07-24T15:12:18;10.60;;;8.00;;
1925;SDS011;964;42.606;23.588;2023-07-24T15:14:45;11.27;;;7.70;;
1925;SDS011;964;42.606;23.588;2023-07-24T15:17:12;9.48;;;7.40;;